sensor_id;sensor_type;location;lat;lon;timestamp;temperature;humidity
7516;DHT22;3799;47.184;8.538;2023-04-30T00:00:36;13.70;99.90
7516;DHT22;3799;47.184;8.538;2023-04-30T00:03:03;13.60;99.90
7516;DHT22;3799;47.184;8.538;2023-04-30T00:05:31;13.70;99.90
7516;DHT22;3799;47.184;8.538;2023-04-30T00:07:58;13.50;99.90
7516;DHT22;3799;47.184;8.538;2023-04-30T00:10:25;13.40;99.90
7516;DHT22;3799;47.184;8.538;2023-04-30T00:12:52;13.50;99.90
7516;DHT22;3799;47.184;8.538;2023-04-30T00:15:23;13.40;99.90
7516;DHT22;3799;47.184;8.538;2023-04-30T00:17:50;13.50;99.90
7516;DHT22;3799;47.184;8.538;2023-04-30T00:20:18;13.50;99.90
7516;DHT22;3799;47.184;8.538;2023-04-30T00:22:46;13.30;99.90
7516;DHT22;3799;47.184;8.538;2023-04-30T00:25:16;13.60;99.90
7516;DHT22;3799;47.184;8.538;2023-04-30T00:27:43;13.50;99.90
7516;DHT22;3799;47.184;8.538;2023-04-30T00:30:23;13.50;99.90
7516;DHT22;3799;47.184;8.538;2023-04-30T00:32:50;13.40;99.90
7516;DHT22;3799;47.184;8.538;2023-04-30T00:35:17;13.40;99.90
7516;DHT22;3799;47.184;8.538;2023-04-30T00:37:45;13.40;99.90
7516;DHT22;3799;47.184;8.538;2023-04-30T00:40:12;13.40;99.90
7516;DHT22;3799;47.184;8.538;2023-04-30T00:42:39;13.40;99.90
7516;DHT22;3799;47.184;8.538;2023-04-30T00:45:07;13.30;99.90
7516;DHT22;3799;47.184;8.538;2023-04-30T00:47:35;13.50;99.90
7516;DHT22;3799;47.184;8.538;2023-04-30T00:50:03;13.30;99.90
7516;DHT22;3799;47.184;8.538;2023-04-30T00:52:30;13.10;99.90
7516;DHT22;3799;47.184;8.538;2023-04-30T00:54:58;13.40;99.90
7516;DHT22;3799;47.184;8.538;2023-04-30T00:57:25;13.30;99.90
7516;DHT22;3799;47.184;8.538;2023-04-30T00:59:54;13.20;99.90
7516;DHT22;3799;47.184;8.538;2023-04-30T01:02:22;13.50;99.90
7516;DHT22;3799;47.184;8.538;2023-04-30T01:04:51;13.40;99.90
7516;DHT22;3799;47.184;8.538;2023-04-30T01:07:18;13.20;99.90
7516;DHT22;3799;47.184;8.538;2023-04-30T01:09:46;13.50;99.90
7516;DHT22;3799;47.184;8.538;2023-04-30T01:17:33;13.30;99.90
7516;DHT22;3799;47.184;8.538;2023-04-30T01:20:03;13.30;99.90
7516;DHT22;3799;47.184;8.538;2023-04-30T01:22:54;13.50;99.90
7516;DHT22;3799;47.184;8.538;2023-04-30T01:25:43;13.40;99.90
7516;DHT22;3799;47.184;8.538;2023-04-30T01:28:15;13.30;99.90
7516;DHT22;3799;47.184;8.538;2023-04-30T01:30:45;13.30;99.90
7516;DHT22;3799;47.184;8.538;2023-04-30T01:33:13;13.30;99.90
7516;DHT22;3799;47.184;8.538;2023-04-30T01:38:25;13.20;99.90
7516;DHT22;3799;47.184;8.538;2023-04-30T01:41:09;13.20;99.90
7516;DHT22;3799;47.184;8.538;2023-04-30T01:43:44;13.40;99.90
7516;DHT22;3799;47.184;8.538;2023-04-30T01:46:28;13.50;99.90
7516;DHT22;3799;47.184;8.538;2023-04-30T01:49:37;13.60;99.90
7516;DHT22;3799;47.184;8.538;2023-04-30T01:52:22;13.40;99.90
7516;DHT22;3799;47.184;8.538;2023-04-30T01:55:06;13.60;99.90
7516;DHT22;3799;47.184;8.538;2023-04-30T01:57:40;13.40;99.90
7516;DHT22;3799;47.184;8.538;2023-04-30T02:00:09;13.40;99.90
7516;DHT22;3799;47.184;8.538;2023-04-30T02:02:37;13.40;99.90
7516;DHT22;3799;47.184;8.538;2023-04-30T02:05:06;13.60;99.90
7516;DHT22;3799;47.184;8.538;2023-04-30T02:07:42;13.60;99.90
7516;DHT22;3799;47.184;8.538;2023-04-30T02:10:10;13.60;99.90
7516;DHT22;3799;47.184;8.538;2023-04-30T02:12:40;13.50;99.90
7516;DHT22;3799;47.184;8.538;2023-04-30T02:15:08;13.70;99.90
7516;DHT22;3799;47.184;8.538;2023-04-30T02:17:37;13.70;99.90
7516;DHT22;3799;47.184;8.538;2023-04-30T02:20:05;13.40;99.90
7516;DHT22;3799;47.184;8.538;2023-04-30T02:22:34;13.40;99.90
7516;DHT22;3799;47.184;8.538;2023-04-30T02:25:02;13.60;99.90
7516;DHT22;3799;47.184;8.538;2023-04-30T02:27:31;13.60;99.90
7516;DHT22;3799;47.184;8.538;2023-04-30T02:29:59;13.60;99.90
7516;DHT22;3799;47.184;8.538;2023-04-30T02:32:27;13.50;99.90
7516;DHT22;3799;47.184;8.538;2023-04-30T02:34:54;13.40;99.90
7516;DHT22;3799;47.184;8.538;2023-04-30T02:37:22;13.40;99.90
7516;DHT22;3799;47.184;8.538;2023-04-30T02:39:50;13.50;99.90
7516;DHT22;3799;47.184;8.538;2023-04-30T02:42:17;13.40;99.90
7516;DHT22;3799;47.184;8.538;2023-04-30T02:44:45;13.40;99.90
7516;DHT22;3799;47.184;8.538;2023-04-30T02:47:12;13.60;99.90
7516;DHT22;3799;47.184;8.538;2023-04-30T02:49:39;13.50;99.90
7516;DHT22;3799;47.184;8.538;2023-04-30T02:52:07;13.60;99.90
7516;DHT22;3799;47.184;8.538;2023-04-30T02:54:38;13.50;99.90
7516;DHT22;3799;47.184;8.538;2023-04-30T02:57:05;13.50;99.90
7516;DHT22;3799;47.184;8.538;2023-04-30T02:59:33;13.50;99.90
7516;DHT22;3799;47.184;8.538;2023-04-30T03:02:00;13.40;99.90
7516;DHT22;3799;47.184;8.538;2023-04-30T03:04:31;13.10;99.90
7516;DHT22;3799;47.184;8.538;2023-04-30T03:06:58;13.30;99.90
7516;DHT22;3799;47.184;8.538;2023-04-30T03:09:26;13.40;99.90
7516;DHT22;3799;47.184;8.538;2023-04-30T03:11:54;13.50;99.90
7516;DHT22;3799;47.184;8.538;2023-04-30T03:14:25;13.50;99.90
7516;DHT22;3799;47.184;8.538;2023-04-30T03:16:54;13.30;99.90
7516;DHT22;3799;47.184;8.538;2023-04-30T03:19:25;13.30;99.90
7516;DHT22;3799;47.184;8.538;2023-04-30T03:21:53;13.50;99.90
7516;DHT22;3799;47.184;8.538;2023-04-30T03:24:20;13.60;99.90
7516;DHT22;3799;47.184;8.538;2023-04-30T03:26:48;13.40;99.90
7516;DHT22;3799;47.184;8.538;2023-04-30T03:29:15;13.40;99.90
7516;DHT22;3799;47.184;8.538;2023-04-30T03:31:43;13.20;99.90
7516;DHT22;3799;47.184;8.538;2023-04-30T03:34:10;13.30;99.90
7516;DHT22;3799;47.184;8.538;2023-04-30T03:36:38;13.40;99.90
7516;DHT22;3799;47.184;8.538;2023-04-30T03:39:05;13.30;99.90
7516;DHT22;3799;47.184;8.538;2023-04-30T03:41:33;13.60;99.90
7516;DHT22;3799;47.184;8.538;2023-04-30T03:44:01;13.10;99.90
7516;DHT22;3799;47.184;8.538;2023-04-30T03:46:32;13.50;99.90
7516;DHT22;3799;47.184;8.538;2023-04-30T03:48:59;13.20;99.90
7516;DHT22;3799;47.184;8.538;2023-04-30T03:51:27;13.30;99.90
7516;DHT22;3799;47.184;8.538;2023-04-30T03:53:54;13.20;99.90
7516;DHT22;3799;47.184;8.538;2023-04-30T03:56:24;13.10;99.90
7516;DHT22;3799;47.184;8.538;2023-04-30T03:58:54;13.10;99.90
7516;DHT22;3799;47.184;8.538;2023-04-30T04:01:22;12.90;99.90
7516;DHT22;3799;47.184;8.538;2023-04-30T04:03:49;13.10;99.90
7516;DHT22;3799;47.184;8.538;2023-04-30T04:06:17;13.10;99.90
7516;DHT22;3799;47.184;8.538;2023-04-30T04:08:45;13.10;99.90
7516;DHT22;3799;47.184;8.538;2023-04-30T04:11:22;13.40;99.90
7516;DHT22;3799;47.184;8.538;2023-04-30T04:13:50;13.30;99.90
7516;DHT22;3799;47.184;8.538;2023-04-30T04:16:17;13.10;99.90
7516;DHT22;3799;47.184;8.538;2023-04-30T04:18:45;12.90;99.90
7516;DHT22;3799;47.184;8.538;2023-04-30T04:21:12;13.20;99.90
7516;DHT22;3799;47.184;8.538;2023-04-30T04:23:40;13.30;99.90
7516;DHT22;3799;47.184;8.538;2023-04-30T04:26:17;13.30;99.90
7516;DHT22;3799;47.184;8.538;2023-04-30T04:28:50;13.20;99.90
7516;DHT22;3799;47.184;8.538;2023-04-30T04:31:17;13.00;99.90
7516;DHT22;3799;47.184;8.538;2023-04-30T04:33:46;13.20;99.90
7516;DHT22;3799;47.184;8.538;2023-04-30T04:36:13;13.30;99.90
7516;DHT22;3799;47.184;8.538;2023-04-30T04:38:41;13.00;99.90
7516;DHT22;3799;47.184;8.538;2023-04-30T04:41:08;13.20;99.90
7516;DHT22;3799;47.184;8.538;2023-04-30T04:43:36;13.00;99.90
7516;DHT22;3799;47.184;8.538;2023-04-30T04:46:03;13.20;99.90
7516;DHT22;3799;47.184;8.538;2023-04-30T04:48:31;13.10;99.90
7516;DHT22;3799;47.184;8.538;2023-04-30T04:50:59;12.90;99.90
7516;DHT22;3799;47.184;8.538;2023-04-30T04:53:26;13.20;99.90
7516;DHT22;3799;47.184;8.538;2023-04-30T04:55:54;13.20;99.90
7516;DHT22;3799;47.184;8.538;2023-04-30T04:58:21;12.90;99.90
7516;DHT22;3799;47.184;8.538;2023-04-30T05:00:48;13.00;99.90
7516;DHT22;3799;47.184;8.538;2023-04-30T05:03:19;12.90;99.90
7516;DHT22;3799;47.184;8.538;2023-04-30T05:05:47;13.00;99.90
7516;DHT22;3799;47.184;8.538;2023-04-30T05:08:14;13.30;99.90
7516;DHT22;3799;47.184;8.538;2023-04-30T05:10:42;12.90;99.90
7516;DHT22;3799;47.184;8.538;2023-04-30T05:13:10;12.90;99.90
7516;DHT22;3799;47.184;8.538;2023-04-30T05:15:42;13.10;99.90
7516;DHT22;3799;47.184;8.538;2023-04-30T05:18:10;13.20;99.90
7516;DHT22;3799;47.184;8.538;2023-04-30T05:20:38;13.10;99.90
7516;DHT22;3799;47.184;8.538;2023-04-30T05:23:08;13.00;99.90
7516;DHT22;3799;47.184;8.538;2023-04-30T05:25:36;12.90;99.90
7516;DHT22;3799;47.184;8.538;2023-04-30T05:28:07;12.90;99.90
7516;DHT22;3799;47.184;8.538;2023-04-30T05:30:34;13.20;99.90
7516;DHT22;3799;47.184;8.538;2023-04-30T05:33:01;12.90;99.90
7516;DHT22;3799;47.184;8.538;2023-04-30T05:35:29;13.20;99.90
7516;DHT22;3799;47.184;8.538;2023-04-30T05:37:58;12.90;99.90
7516;DHT22;3799;47.184;8.538;2023-04-30T05:40:32;13.00;99.90
7516;DHT22;3799;47.184;8.538;2023-04-30T05:43:02;12.80;99.90
7516;DHT22;3799;47.184;8.538;2023-04-30T05:45:33;13.00;99.90
7516;DHT22;3799;47.184;8.538;2023-04-30T05:48:01;13.10;99.90
7516;DHT22;3799;47.184;8.538;2023-04-30T05:50:28;13.20;99.90
7516;DHT22;3799;47.184;8.538;2023-04-30T05:53:02;13.30;99.90
7516;DHT22;3799;47.184;8.538;2023-04-30T05:55:32;12.90;99.90
7516;DHT22;3799;47.184;8.538;2023-04-30T05:58:00;13.10;99.90
7516;DHT22;3799;47.184;8.538;2023-04-30T06:00:30;13.10;99.90
7516;DHT22;3799;47.184;8.538;2023-04-30T06:03:00;13.40;99.90
7516;DHT22;3799;47.184;8.538;2023-04-30T06:05:27;13.60;99.90
7516;DHT22;3799;47.184;8.538;2023-04-30T06:07:55;13.50;99.90
7516;DHT22;3799;47.184;8.538;2023-04-30T06:10:23;13.50;99.90
7516;DHT22;3799;47.184;8.538;2023-04-30T06:12:50;13.40;99.90
7516;DHT22;3799;47.184;8.538;2023-04-30T06:15:18;13.50;99.90
7516;DHT22;3799;47.184;8.538;2023-04-30T06:17:45;13.70;99.90
7516;DHT22;3799;47.184;8.538;2023-04-30T06:20:12;13.50;99.90
7516;DHT22;3799;47.184;8.538;2023-04-30T06:22:41;13.50;99.90
7516;DHT22;3799;47.184;8.538;2023-04-30T06:25:08;13.70;99.90
7516;DHT22;3799;47.184;8.538;2023-04-30T06:27:36;13.90;99.90
7516;DHT22;3799;47.184;8.538;2023-04-30T06:30:03;13.90;99.90
7516;DHT22;3799;47.184;8.538;2023-04-30T06:32:34;13.90;99.90
7516;DHT22;3799;47.184;8.538;2023-04-30T06:35:01;14.00;99.90
7516;DHT22;3799;47.184;8.538;2023-04-30T06:37:31;14.10;99.90
7516;DHT22;3799;47.184;8.538;2023-04-30T06:40:04;14.20;99.90
7516;DHT22;3799;47.184;8.538;2023-04-30T06:42:32;14.20;99.90
7516;DHT22;3799;47.184;8.538;2023-04-30T06:45:01;14.30;99.90
7516;DHT22;3799;47.184;8.538;2023-04-30T06:47:36;14.20;99.90
7516;DHT22;3799;47.184;8.538;2023-04-30T06:50:04;14.30;99.90
7516;DHT22;3799;47.184;8.538;2023-04-30T06:52:35;14.40;99.90
7516;DHT22;3799;47.184;8.538;2023-04-30T06:55:03;14.40;99.90
7516;DHT22;3799;47.184;8.538;2023-04-30T06:57:30;14.40;99.90
7516;DHT22;3799;47.184;8.538;2023-04-30T07:00:00;14.60;99.90
7516;DHT22;3799;47.184;8.538;2023-04-30T07:02:28;14.80;99.90
7516;DHT22;3799;47.184;8.538;2023-04-30T07:04:57;14.50;99.90
7516;DHT22;3799;47.184;8.538;2023-04-30T07:07:25;15.00;99.90
7516;DHT22;3799;47.184;8.538;2023-04-30T07:09:52;15.00;99.90
7516;DHT22;3799;47.184;8.538;2023-04-30T07:12:20;14.70;99.90
7516;DHT22;3799;47.184;8.538;2023-04-30T07:14:48;14.90;99.90
7516;DHT22;3799;47.184;8.538;2023-04-30T07:17:15;14.90;99.90
7516;DHT22;3799;47.184;8.538;2023-04-30T07:19:42;14.90;99.90
7516;DHT22;3799;47.184;8.538;2023-04-30T07:22:10;14.90;99.90
7516;DHT22;3799;47.184;8.538;2023-04-30T07:24:37;14.90;99.90
7516;DHT22;3799;47.184;8.538;2023-04-30T07:27:04;14.80;99.90
7516;DHT22;3799;47.184;8.538;2023-04-30T07:29:34;14.90;99.90
7516;DHT22;3799;47.184;8.538;2023-04-30T07:32:03;14.90;99.90
7516;DHT22;3799;47.184;8.538;2023-04-30T07:34:30;14.90;99.90
7516;DHT22;3799;47.184;8.538;2023-04-30T07:36:58;15.10;99.90
7516;DHT22;3799;47.184;8.538;2023-04-30T07:39:25;15.00;99.90
7516;DHT22;3799;47.184;8.538;2023-04-30T07:41:52;15.10;99.90
7516;DHT22;3799;47.184;8.538;2023-04-30T07:44:20;15.20;99.90
7516;DHT22;3799;47.184;8.538;2023-04-30T07:46:47;15.30;99.90
7516;DHT22;3799;47.184;8.538;2023-04-30T07:49:18;15.20;99.90
7516;DHT22;3799;47.184;8.538;2023-04-30T07:51:45;15.20;99.90
7516;DHT22;3799;47.184;8.538;2023-04-30T07:54:13;15.30;99.90
7516;DHT22;3799;47.184;8.538;2023-04-30T07:56:40;15.40;99.90
7516;DHT22;3799;47.184;8.538;2023-04-30T07:59:08;15.60;99.90
7516;DHT22;3799;47.184;8.538;2023-04-30T08:01:36;15.50;99.90
7516;DHT22;3799;47.184;8.538;2023-04-30T08:04:03;15.50;99.90
7516;DHT22;3799;47.184;8.538;2023-04-30T08:06:30;15.60;99.90
7516;DHT22;3799;47.184;8.538;2023-04-30T08:08:58;15.60;99.90
7516;DHT22;3799;47.184;8.538;2023-04-30T08:11:26;15.50;99.90
7516;DHT22;3799;47.184;8.538;2023-04-30T08:13:53;15.50;99.90
7516;DHT22;3799;47.184;8.538;2023-04-30T08:16:21;15.60;99.90
7516;DHT22;3799;47.184;8.538;2023-04-30T08:18:51;15.70;99.90
7516;DHT22;3799;47.184;8.538;2023-04-30T08:21:18;15.80;99.90
7516;DHT22;3799;47.184;8.538;2023-04-30T08:23:46;15.90;99.90
7516;DHT22;3799;47.184;8.538;2023-04-30T08:26:13;16.00;99.90
7516;DHT22;3799;47.184;8.538;2023-04-30T08:28:40;16.00;99.90
7516;DHT22;3799;47.184;8.538;2023-04-30T08:31:08;16.20;99.90
7516;DHT22;3799;47.184;8.538;2023-04-30T08:33:36;16.20;99.90
7516;DHT22;3799;47.184;8.538;2023-04-30T08:36:15;16.30;99.90
7516;DHT22;3799;47.184;8.538;2023-04-30T08:38:42;16.50;99.90
7516;DHT22;3799;47.184;8.538;2023-04-30T08:41:13;16.60;99.90
7516;DHT22;3799;47.184;8.538;2023-04-30T08:43:43;16.70;99.90
7516;DHT22;3799;47.184;8.538;2023-04-30T08:46:11;16.80;99.90
7516;DHT22;3799;47.184;8.538;2023-04-30T08:48:40;17.10;99.90
7516;DHT22;3799;47.184;8.538;2023-04-30T08:51:07;17.10;99.90
7516;DHT22;3799;47.184;8.538;2023-04-30T08:53:36;17.10;99.90
7516;DHT22;3799;47.184;8.538;2023-04-30T08:56:09;17.50;99.90
7516;DHT22;3799;47.184;8.538;2023-04-30T08:58:37;17.30;99.90
7516;DHT22;3799;47.184;8.538;2023-04-30T09:01:08;17.30;99.90
7516;DHT22;3799;47.184;8.538;2023-04-30T09:03:39;17.30;99.90
7516;DHT22;3799;47.184;8.538;2023-04-30T09:06:07;17.60;99.90
7516;DHT22;3799;47.184;8.538;2023-04-30T09:08:48;17.10;99.90
7516;DHT22;3799;47.184;8.538;2023-04-30T09:11:27;17.60;99.90
7516;DHT22;3799;47.184;8.538;2023-04-30T09:14:04;17.70;99.90
7516;DHT22;3799;47.184;8.538;2023-04-30T09:16:49;17.60;99.90
7516;DHT22;3799;47.184;8.538;2023-04-30T09:19:27;17.80;99.90
7516;DHT22;3799;47.184;8.538;2023-04-30T09:21:56;17.90;99.90
7516;DHT22;3799;47.184;8.538;2023-04-30T09:24:23;17.60;99.90
7516;DHT22;3799;47.184;8.538;2023-04-30T09:26:52;17.50;99.90
7516;DHT22;3799;47.184;8.538;2023-04-30T09:29:19;17.70;99.90
7516;DHT22;3799;47.184;8.538;2023-04-30T09:31:47;17.60;99.90
7516;DHT22;3799;47.184;8.538;2023-04-30T09:34:14;17.50;99.90
7516;DHT22;3799;47.184;8.538;2023-04-30T09:36:52;18.00;99.90
7516;DHT22;3799;47.184;8.538;2023-04-30T09:39:22;18.00;99.90
7516;DHT22;3799;47.184;8.538;2023-04-30T09:41:50;18.00;99.90
7516;DHT22;3799;47.184;8.538;2023-04-30T09:44:28;18.10;99.70
7516;DHT22;3799;47.184;8.538;2023-04-30T09:46:56;18.10;98.00
7516;DHT22;3799;47.184;8.538;2023-04-30T09:49:25;18.40;98.40
7516;DHT22;3799;47.184;8.538;2023-04-30T09:51:54;18.30;98.70
7516;DHT22;3799;47.184;8.538;2023-04-30T09:54:30;18.50;98.80
7516;DHT22;3799;47.184;8.538;2023-04-30T09:57:00;18.70;97.70
7516;DHT22;3799;47.184;8.538;2023-04-30T09:59:32;18.30;97.50
7516;DHT22;3799;47.184;8.538;2023-04-30T10:02:03;18.40;96.90
7516;DHT22;3799;47.184;8.538;2023-04-30T10:04:37;18.60;97.50
7516;DHT22;3799;47.184;8.538;2023-04-30T10:07:20;18.50;97.00
7516;DHT22;3799;47.184;8.538;2023-04-30T10:10:23;18.90;96.20
7516;DHT22;3799;47.184;8.538;2023-04-30T10:12:55;18.80;94.70
7516;DHT22;3799;47.184;8.538;2023-04-30T10:15:30;18.60;94.90
7516;DHT22;3799;47.184;8.538;2023-04-30T10:18:04;18.70;94.30
7516;DHT22;3799;47.184;8.538;2023-04-30T10:20:35;18.90;94.00
7516;DHT22;3799;47.184;8.538;2023-04-30T10:23:04;18.80;93.40
7516;DHT22;3799;47.184;8.538;2023-04-30T10:25:34;18.60;94.40
7516;DHT22;3799;47.184;8.538;2023-04-30T10:28:01;18.70;94.40
7516;DHT22;3799;47.184;8.538;2023-04-30T10:30:31;19.00;94.00
7516;DHT22;3799;47.184;8.538;2023-04-30T10:33:18;19.00;94.10
7516;DHT22;3799;47.184;8.538;2023-04-30T10:35:55;19.30;92.40
7516;DHT22;3799;47.184;8.538;2023-04-30T10:38:27;19.50;92.30
7516;DHT22;3799;47.184;8.538;2023-04-30T10:40:56;19.40;92.00
7516;DHT22;3799;47.184;8.538;2023-04-30T10:43:25;19.20;91.70
7516;DHT22;3799;47.184;8.538;2023-04-30T10:45:52;19.40;92.40
7516;DHT22;3799;47.184;8.538;2023-04-30T10:48:21;19.60;91.40
7516;DHT22;3799;47.184;8.538;2023-04-30T10:50:58;19.90;91.50
7516;DHT22;3799;47.184;8.538;2023-04-30T10:53:29;20.00;91.70
7516;DHT22;3799;47.184;8.538;2023-04-30T10:56:01;20.10;89.60
7516;DHT22;3799;47.184;8.538;2023-04-30T10:58:34;19.90;86.90
7516;DHT22;3799;47.184;8.538;2023-04-30T11:01:08;19.90;88.90
7516;DHT22;3799;47.184;8.538;2023-04-30T11:04:05;19.70;88.30
7516;DHT22;3799;47.184;8.538;2023-04-30T11:09:19;19.70;89.80
7516;DHT22;3799;47.184;8.538;2023-04-30T11:12:01;19.80;87.10
7516;DHT22;3799;47.184;8.538;2023-04-30T11:14:31;19.50;83.30
7516;DHT22;3799;47.184;8.538;2023-04-30T11:17:00;19.40;87.90
7516;DHT22;3799;47.184;8.538;2023-04-30T11:19:28;19.50;86.50
7516;DHT22;3799;47.184;8.538;2023-04-30T11:24:52;19.20;85.80
7516;DHT22;3799;47.184;8.538;2023-04-30T11:27:27;19.40;87.70
7516;DHT22;3799;47.184;8.538;2023-04-30T11:29:56;19.40;88.00
7516;DHT22;3799;47.184;8.538;2023-04-30T11:32:31;19.40;88.80
7516;DHT22;3799;47.184;8.538;2023-04-30T11:35:02;19.50;87.90
7516;DHT22;3799;47.184;8.538;2023-04-30T11:40:07;19.50;88.10
7516;DHT22;3799;47.184;8.538;2023-04-30T11:42:39;19.40;87.20
7516;DHT22;3799;47.184;8.538;2023-04-30T11:45:13;19.60;88.50
7516;DHT22;3799;47.184;8.538;2023-04-30T11:47:51;19.50;86.80
7516;DHT22;3799;47.184;8.538;2023-04-30T11:50:20;19.70;86.60
7516;DHT22;3799;47.184;8.538;2023-04-30T11:52:55;19.50;85.70
7516;DHT22;3799;47.184;8.538;2023-04-30T11:55:24;19.50;84.90
7516;DHT22;3799;47.184;8.538;2023-04-30T11:57:56;19.70;83.40
7516;DHT22;3799;47.184;8.538;2023-04-30T12:00:29;19.90;83.50
7516;DHT22;3799;47.184;8.538;2023-04-30T12:03:00;19.80;83.30
7516;DHT22;3799;47.184;8.538;2023-04-30T12:05:30;19.70;83.60
7516;DHT22;3799;47.184;8.538;2023-04-30T12:08:04;19.90;83.60
7516;DHT22;3799;47.184;8.538;2023-04-30T12:10:35;20.00;84.90
7516;DHT22;3799;47.184;8.538;2023-04-30T12:13:03;19.90;84.00
7516;DHT22;3799;47.184;8.538;2023-04-30T12:15:30;20.00;81.70
7516;DHT22;3799;47.184;8.538;2023-04-30T12:17:59;19.80;82.70
7516;DHT22;3799;47.184;8.538;2023-04-30T12:20:37;19.90;82.10
7516;DHT22;3799;47.184;8.538;2023-04-30T12:23:06;19.90;82.30
7516;DHT22;3799;47.184;8.538;2023-04-30T12:25:41;19.50;82.90
7516;DHT22;3799;47.184;8.538;2023-04-30T12:28:14;19.50;83.40
7516;DHT22;3799;47.184;8.538;2023-04-30T12:30:42;19.50;84.00
7516;DHT22;3799;47.184;8.538;2023-04-30T12:33:10;19.50;83.30
7516;DHT22;3799;47.184;8.538;2023-04-30T12:35:41;19.60;82.90
7516;DHT22;3799;47.184;8.538;2023-04-30T12:38:09;19.60;82.90
7516;DHT22;3799;47.184;8.538;2023-04-30T12:40:37;19.60;83.80
7516;DHT22;3799;47.184;8.538;2023-04-30T12:43:06;19.50;81.70
7516;DHT22;3799;47.184;8.538;2023-04-30T12:45:49;19.80;80.00
7516;DHT22;3799;47.184;8.538;2023-04-30T12:48:23;19.70;79.40
7516;DHT22;3799;47.184;8.538;2023-04-30T12:50:55;19.70;79.10
7516;DHT22;3799;47.184;8.538;2023-04-30T12:53:24;20.10;79.30
7516;DHT22;3799;47.184;8.538;2023-04-30T12:56:11;20.20;77.40
7516;DHT22;3799;47.184;8.538;2023-04-30T12:58:39;20.30;74.90
7516;DHT22;3799;47.184;8.538;2023-04-30T13:01:10;20.10;74.70
7516;DHT22;3799;47.184;8.538;2023-04-30T13:03:39;20.00;74.50
7516;DHT22;3799;47.184;8.538;2023-04-30T13:06:07;19.80;72.80
7516;DHT22;3799;47.184;8.538;2023-04-30T13:08:36;20.10;75.40
7516;DHT22;3799;47.184;8.538;2023-04-30T13:11:16;19.70;75.80
7516;DHT22;3799;47.184;8.538;2023-04-30T13:13:44;19.80;74.60
7516;DHT22;3799;47.184;8.538;2023-04-30T13:16:11;19.90;74.90
7516;DHT22;3799;47.184;8.538;2023-04-30T13:18:38;19.60;75.10
7516;DHT22;3799;47.184;8.538;2023-04-30T13:21:09;20.00;80.40
7516;DHT22;3799;47.184;8.538;2023-04-30T13:23:37;19.90;83.70
7516;DHT22;3799;47.184;8.538;2023-04-30T13:26:20;20.00;83.50
7516;DHT22;3799;47.184;8.538;2023-04-30T13:28:49;19.90;86.00
7516;DHT22;3799;47.184;8.538;2023-04-30T13:31:17;20.10;80.70
7516;DHT22;3799;47.184;8.538;2023-04-30T13:33:44;20.20;80.20
7516;DHT22;3799;47.184;8.538;2023-04-30T13:36:11;20.30;81.60
7516;DHT22;3799;47.184;8.538;2023-04-30T13:38:39;20.60;80.80
7516;DHT22;3799;47.184;8.538;2023-04-30T13:41:08;20.30;75.90
7516;DHT22;3799;47.184;8.538;2023-04-30T13:43:35;20.50;77.60
7516;DHT22;3799;47.184;8.538;2023-04-30T13:46:08;20.30;80.70
7516;DHT22;3799;47.184;8.538;2023-04-30T13:48:36;20.40;80.10
7516;DHT22;3799;47.184;8.538;2023-04-30T13:51:03;20.60;76.00
7516;DHT22;3799;47.184;8.538;2023-04-30T13:53:31;20.50;76.20
7516;DHT22;3799;47.184;8.538;2023-04-30T13:55:58;20.50;74.60
7516;DHT22;3799;47.184;8.538;2023-04-30T13:58:37;20.20;74.30
7516;DHT22;3799;47.184;8.538;2023-04-30T14:01:05;20.20;76.00
7516;DHT22;3799;47.184;8.538;2023-04-30T14:03:32;20.60;77.60
7516;DHT22;3799;47.184;8.538;2023-04-30T14:06:00;20.10;74.50
7516;DHT22;3799;47.184;8.538;2023-04-30T14:08:27;20.10;74.40
7516;DHT22;3799;47.184;8.538;2023-04-30T14:10:56;19.90;76.40
7516;DHT22;3799;47.184;8.538;2023-04-30T14:13:24;19.80;76.30
7516;DHT22;3799;47.184;8.538;2023-04-30T14:15:52;20.00;75.50
7516;DHT22;3799;47.184;8.538;2023-04-30T14:18:25;19.80;76.00
7516;DHT22;3799;47.184;8.538;2023-04-30T14:20:53;19.50;79.60
7516;DHT22;3799;47.184;8.538;2023-04-30T14:23:21;19.60;79.70
7516;DHT22;3799;47.184;8.538;2023-04-30T14:25:49;19.50;77.70
7516;DHT22;3799;47.184;8.538;2023-04-30T14:28:16;19.40;78.40
7516;DHT22;3799;47.184;8.538;2023-04-30T14:30:43;19.60;84.10
7516;DHT22;3799;47.184;8.538;2023-04-30T14:33:10;19.40;81.90
7516;DHT22;3799;47.184;8.538;2023-04-30T14:35:39;19.30;81.80
7516;DHT22;3799;47.184;8.538;2023-04-30T14:38:07;19.40;83.30
7516;DHT22;3799;47.184;8.538;2023-04-30T14:40:35;19.40;83.10
7516;DHT22;3799;47.184;8.538;2023-04-30T14:43:02;19.30;83.50
7516;DHT22;3799;47.184;8.538;2023-04-30T14:45:43;19.30;82.10
7516;DHT22;3799;47.184;8.538;2023-04-30T14:48:12;18.90;79.40
7516;DHT22;3799;47.184;8.538;2023-04-30T14:50:40;19.10;80.10
7516;DHT22;3799;47.184;8.538;2023-04-30T14:53:07;18.90;79.50
7516;DHT22;3799;47.184;8.538;2023-04-30T14:55:37;18.90;80.00
7516;DHT22;3799;47.184;8.538;2023-04-30T14:58:04;18.80;81.10
7516;DHT22;3799;47.184;8.538;2023-04-30T15:00:33;18.90;81.60
7516;DHT22;3799;47.184;8.538;2023-04-30T15:03:00;18.50;80.10
7516;DHT22;3799;47.184;8.538;2023-04-30T15:05:27;18.70;81.60
7516;DHT22;3799;47.184;8.538;2023-04-30T15:07:55;18.60;82.30
7516;DHT22;3799;47.184;8.538;2023-04-30T15:10:23;18.60;82.70
7516;DHT22;3799;47.184;8.538;2023-04-30T15:12:51;18.30;83.20
7516;DHT22;3799;47.184;8.538;2023-04-30T15:15:18;18.40;84.70
7516;DHT22;3799;47.184;8.538;2023-04-30T15:17:48;18.30;86.10
7516;DHT22;3799;47.184;8.538;2023-04-30T15:20:16;18.20;85.80
7516;DHT22;3799;47.184;8.538;2023-04-30T15:22:44;18.10;86.80
7516;DHT22;3799;47.184;8.538;2023-04-30T15:25:11;18.10;87.40
7516;DHT22;3799;47.184;8.538;2023-04-30T15:27:39;18.10;87.90
7516;DHT22;3799;47.184;8.538;2023-04-30T15:30:08;17.80;88.40
7516;DHT22;3799;47.184;8.538;2023-04-30T15:32:35;18.00;88.60
7516;DHT22;3799;47.184;8.538;2023-04-30T15:35:03;17.90;88.90
7516;DHT22;3799;47.184;8.538;2023-04-30T15:37:30;17.80;89.30
7516;DHT22;3799;47.184;8.538;2023-04-30T15:39:57;17.90;88.50
7516;DHT22;3799;47.184;8.538;2023-04-30T15:42:25;18.00;90.20
7516;DHT22;3799;47.184;8.538;2023-04-30T15:44:53;17.90;90.40
7516;DHT22;3799;47.184;8.538;2023-04-30T15:47:23;17.80;89.70
7516;DHT22;3799;47.184;8.538;2023-04-30T15:49:50;17.80;89.20
7516;DHT22;3799;47.184;8.538;2023-04-30T15:52:18;17.80;89.00
7516;DHT22;3799;47.184;8.538;2023-04-30T15:54:46;18.00;90.10
7516;DHT22;3799;47.184;8.538;2023-04-30T15:57:13;17.80;89.50
7516;DHT22;3799;47.184;8.538;2023-04-30T15:59:48;17.90;89.70
7516;DHT22;3799;47.184;8.538;2023-04-30T16:02:17;17.80;90.30
7516;DHT22;3799;47.184;8.538;2023-04-30T16:04:44;17.60;91.00
7516;DHT22;3799;47.184;8.538;2023-04-30T16:07:11;17.70;91.50
7516;DHT22;3799;47.184;8.538;2023-04-30T16:09:39;17.90;92.10
7516;DHT22;3799;47.184;8.538;2023-04-30T16:12:07;17.70;92.30
7516;DHT22;3799;47.184;8.538;2023-04-30T16:14:35;17.80;93.00
7516;DHT22;3799;47.184;8.538;2023-04-30T16:17:02;17.70;93.00
7516;DHT22;3799;47.184;8.538;2023-04-30T16:19:30;17.50;93.40
7516;DHT22;3799;47.184;8.538;2023-04-30T16:21:57;17.60;93.90
7516;DHT22;3799;47.184;8.538;2023-04-30T16:24:27;17.80;94.40
7516;DHT22;3799;47.184;8.538;2023-04-30T16:26:55;17.50;94.40
7516;DHT22;3799;47.184;8.538;2023-04-30T16:29:23;17.50;94.40
7516;DHT22;3799;47.184;8.538;2023-04-30T16:31:51;17.70;95.00
7516;DHT22;3799;47.184;8.538;2023-04-30T16:34:18;17.60;95.10